Time;durP1;ratioP1;P1;durP2;ratioP2;P2;SDS_P1;SDS_P2;PMS_P1;PMS_P2;Temp;Humidity;BMP_temperature;BMP_pressure;BME280_temperature;BME280_humidity;BME280_pressure;Samples;Min_cycle;Max_cycle;Signal;HPM_P1;HPM_P2
2023/04/02 00:00:35;;;;;;;;;;;19.50;54.90;;;;;;6244931;28;19917;-69
2023/04/02 00:03:42;;;;;;;;;;;19.50;54.90;;;;;;6268210;28;20512;-69
2023/04/02 00:06:46;;;;;;;;;;;19.50;54.90;;;;;;6250810;28;19928;-69
2023/04/02 00:09:46;;;;;;;;;;;19.50;54.80;;;;;;6267196;28;20558;-69
2023/04/02 00:12:58;;;;;;;;;;;19.50;54.80;;;;;;6250148;28;19909;-69
2023/04/02 00:15:59;;;;;;;;;;;19.50;54.80;;;;;;6265605;28;19916;-69
2023/04/02 00:19:03;;;;;;;;;;;19.50;54.80;;;;;;6225657;28;19913;-69
2023/04/02 00:22:06;;;;;;;;;;;19.50;54.70;;;;;;6254010;28;19936;-69
2023/04/02 00:25:11;;;;;;;;;;;19.50;54.80;;;;;;6251231;28;19968;-69
2023/04/02 00:28:15;;;;;;;;;;;19.50;54.80;;;;;;6262555;28;19909;-69
2023/04/02 00:31:18;;;;;;;;;;;19.50;54.70;;;;;;6267753;28;20327;-69
2023/04/02 00:34:24;;;;;;;;;;;19.50;54.70;;;;;;6264756;28;19924;-67
2023/04/02 00:37:37;;;;;;;;;;;19.50;54.60;;;;;;6254633;28;20028;-69
2023/04/02 00:40:38;;;;;;;;;;;19.50;54.70;;;;;;6267843;28;19913;-69
2023/04/02 00:43:43;;;;;;;;;;;19.50;54.70;;;;;;6246719;28;20487;-69
2023/04/02 00:46:48;;;;;;;;;;;19.50;54.70;;;;;;6243085;28;20407;-69
2023/04/02 00:49:52;;;;;;;;;;;19.50;54.40;;;;;;6225406;28;19909;-69
2023/04/02 00:52:55;;;;;;;;;;;19.50;54.70;;;;;;6255996;28;20337;-69
2023/04/02 00:55:59;;;;;;;;;;;19.50;54.80;;;;;;6268155;28;19908;-69
2023/04/02 00:59:00;;;;;;;;;;;19.50;54.30;;;;;;6228185;28;19909;-69
2023/04/02 01:02:13;;;;;;;;;;;19.50;54.50;;;;;;6247492;28;19916;-69
2023/04/02 01:05:14;;;;;;;;;;;19.50;54.60;;;;;;6267932;28;19964;-69
2023/04/02 01:08:14;;;;;;;;;;;19.50;54.60;;;;;;6235756;28;20403;-69
2023/04/02 01:11:38;;;;;;;;;;;19.50;54.60;;;;;;6243022;28;20060;-69
2023/04/02 01:14:57;;;;;;;;;;;19.40;54.60;;;;;;6207349;28;19916;-69
2023/04/02 01:18:17;;;;;;;;;;;19.40;54.50;;;;;;6238851;28;19912;-68
2023/04/02 01:21:21;;;;;;;;;;;19.40;54.40;;;;;;6268026;28;19936;-69
2023/04/02 01:24:25;;;;;;;;;;;19.40;54.20;;;;;;6272343;28;19908;-69
2023/04/02 01:27:33;;;;;;;;;;;19.40;54.30;;;;;;6254210;28;19909;-68
2023/04/02 01:30:35;;;;;;;;;;;19.40;54.30;;;;;;6271899;28;20432;-69
2023/04/02 01:33:36;;;;;;;;;;;19.40;54.40;;;;;;6253814;28;20202;-69
2023/04/02 01:36:36;;;;;;;;;;;19.40;54.30;;;;;;6231723;28;19909;-68
2023/04/02 01:39:55;;;;;;;;;;;19.40;54.30;;;;;;6229158;28;19916;-69
2023/04/02 01:43:04;;;;;;;;;;;19.50;54.60;;;;;;6253331;28;19909;-69
2023/04/02 01:46:23;;;;;;;;;;;19.50;54.40;;;;;;6253868;28;19916;-68
2023/04/02 01:49:24;;;;;;;;;;;19.40;54.40;;;;;;6253507;28;19931;-69
2023/04/02 01:52:33;;;;;;;;;;;19.40;54.40;;;;;;6246211;28;19921;-68
2023/04/02 01:55:44;;;;;;;;;;;19.40;54.40;;;;;;6246844;28;19913;-68
2023/04/02 01:58:45;;;;;;;;;;;19.40;54.40;;;;;;6257521;28;20354;-68
2023/04/02 02:01:58;;;;;;;;;;;19.40;54.10;;;;;;6271273;28;20008;-69
2023/04/02 02:05:00;;;;;;;;;;;19.40;54.20;;;;;;6249824;28;19999;-68
2023/04/02 02:08:02;;;;;;;;;;;19.40;54.30;;;;;;6246457;28;19916;-69
2023/04/02 02:11:03;;;;;;;;;;;19.40;54.30;;;;;;6228143;28;19968;-69
2023/04/02 02:14:10;;;;;;;;;;;19.40;54.40;;;;;;6254812;28;19909;-70
2023/04/02 02:17:14;;;;;;;;;;;19.40;54.20;;;;;;6270419;28;20392;-69
2023/04/02 02:20:15;;;;;;;;;;;19.40;54.00;;;;;;6231446;28;19924;-69
2023/04/02 02:23:16;;;;;;;;;;;19.40;54.10;;;;;;6245977;28;19909;-70
2023/04/02 02:26:16;;;;;;;;;;;19.40;53.80;;;;;;6228032;28;19913;-68
2023/04/02 02:29:18;;;;;;;;;;;19.40;53.90;;;;;;6256589;28;20441;-69
2023/04/02 02:32:21;;;;;;;;;;;19.40;54.00;;;;;;6270091;28;20434;-69
2023/04/02 02:35:27;;;;;;;;;;;19.40;54.10;;;;;;6250587;28;19909;-69
2023/04/02 02:38:33;;;;;;;;;;;19.40;54.10;;;;;;6248519;28;19916;-69
2023/04/02 02:41:35;;;;;;;;;;;19.40;53.90;;;;;;6270437;28;19920;-68
2023/04/02 02:44:38;;;;;;;;;;;19.40;54.20;;;;;;6257989;28;20287;-69
2023/04/02 02:47:41;;;;;;;;;;;19.40;54.30;;;;;;6227709;28;19909;-69
2023/04/02 02:50:42;;;;;;;;;;;19.40;54.00;;;;;;6247393;28;19909;-69
2023/04/02 02:53:50;;;;;;;;;;;19.40;54.10;;;;;;6248610;28;19925;-69
2023/04/02 02:56:59;;;;;;;;;;;19.40;54.20;;;;;;6254970;28;19962;-69
2023/04/02 03:00:01;;;;;;;;;;;19.40;54.20;;;;;;6258193;28;20020;-69
2023/04/02 03:03:04;;;;;;;;;;;19.40;54.20;;;;;;6251294;28;19959;-69
2023/04/02 03:06:09;;;;;;;;;;;19.40;54.30;;;;;;6230568;28;19917;-69
2023/04/02 03:09:21;;;;;;;;;;;19.40;54.00;;;;;;6246546;28;20333;-68
2023/04/02 03:12:35;;;;;;;;;;;19.40;54.30;;;;;;6269366;28;19909;-69
2023/04/02 03:15:54;;;;;;;;;;;19.40;54.00;;;;;;6235684;28;19909;-69
2023/04/02 03:19:13;;;;;;;;;;;19.40;54.20;;;;;;6244658;28;19957;-69
2023/04/02 03:22:30;;;;;;;;;;;19.40;54.10;;;;;;6251132;28;19948;-69
2023/04/02 03:25:35;;;;;;;;;;;19.40;54.00;;;;;;6202073;28;19913;-69
2023/04/02 03:28:42;;;;;;;;;;;19.40;54.30;;;;;;6266441;28;20330;-69
2023/04/02 03:31:47;;;;;;;;;;;19.40;54.00;;;;;;6247005;28;19913;-69
2023/04/02 03:35:00;;;;;;;;;;;19.40;54.30;;;;;;6232406;28;19916;-69
2023/04/02 03:38:06;;;;;;;;;;;19.40;54.10;;;;;;6244198;28;20459;-69
2023/04/02 03:41:14;;;;;;;;;;;19.40;54.30;;;;;;6245697;28;20326;-69
2023/04/02 03:44:18;;;;;;;;;;;19.40;54.20;;;;;;6267650;28;20413;-69
2023/04/02 03:47:26;;;;;;;;;;;19.40;54.10;;;;;;6226583;28;19913;-69
2023/04/02 03:50:27;;;;;;;;;;;19.40;54.30;;;;;;6251455;28;20374;-69
2023/04/02 03:53:28;;;;;;;;;;;19.40;54.20;;;;;;6225646;28;19921;-69
2023/04/02 03:56:32;;;;;;;;;;;19.40;54.20;;;;;;6254039;28;20091;-69
2023/04/02 03:59:53;;;;;;;;;;;19.40;54.30;;;;;;6267087;28;20002;-69
2023/04/02 04:03:01;;;;;;;;;;;19.40;54.20;;;;;;6242557;28;20466;-69
2023/04/02 04:06:09;;;;;;;;;;;19.40;54.00;;;;;;6255964;28;19956;-69
2023/04/02 04:09:13;;;;;;;;;;;19.40;54.20;;;;;;6268522;28;19909;-69
2023/04/02 04:12:26;;;;;;;;;;;19.40;53.90;;;;;;6259777;28;19940;-69
2023/04/02 04:15:29;;;;;;;;;;;19.40;54.10;;;;;;6250068;28;19909;-69
2023/04/02 04:18:33;;;;;;;;;;;19.40;54.10;;;;;;6243782;28;19948;-69
2023/04/02 04:21:37;;;;;;;;;;;19.40;54.10;;;;;;6258376;28;19923;-69
2023/04/02 04:24:38;;;;;;;;;;;19.40;54.10;;;;;;6238974;28;20004;-67
2023/04/02 04:27:57;;;;;;;;;;;19.40;54.10;;;;;;6267798;28;19908;-68
2023/04/02 04:31:02;;;;;;;;;;;19.40;54.10;;;;;;6241650;28;19916;-69
2023/04/02 04:34:15;;;;;;;;;;;19.40;54.10;;;;;;6225309;28;19913;-69
2023/04/02 04:37:32;;;;;;;;;;;19.40;54.10;;;;;;6242984;28;19913;-69
2023/04/02 04:40:35;;;;;;;;;;;19.40;54.10;;;;;;6228934;28;19917;-69
2023/04/02 04:43:47;;;;;;;;;;;19.40;54.10;;;;;;6267659;28;19909;-69
2023/04/02 04:46:53;;;;;;;;;;;19.40;54.20;;;;;;6249689;28;19909;-69
2023/04/02 04:50:01;;;;;;;;;;;19.40;54.10;;;;;;6267887;28;19909;-69
2023/04/02 04:53:14;;;;;;;;;;;19.40;54.10;;;;;;6249592;28;19921;-69
2023/04/02 04:56:17;;;;;;;;;;;19.40;54.10;;;;;;6247689;28;19909;-69
2023/04/02 05:03:16;;;;;;;;;;;19.40;53.80;;;;;;6251574;28;19913;-69
2023/04/02 05:06:16;;;;;;;;;;;19.30;53.90;;;;;;6253755;28;19952;-69
2023/04/02 05:09:27;;;;;;;;;;;19.40;54.00;;;;;;6254573;28;20398;-69
2023/04/02 05:12:36;;;;;;;;;;;19.40;54.10;;;;;;6256542;28;19909;-69
2023/04/02 05:15:40;;;;;;;;;;;19.40;54.10;;;;;;6247241;28;19916;-69
2023/04/02 05:18:41;;;;;;;;;;;19.40;54.00;;;;;;6247456;28;20384;-69
2023/04/02 05:21:48;;;;;;;;;;;19.40;54.10;;;;;;6254875;28;20128;-69
2023/04/02 05:24:57;;;;;;;;;;;19.40;54.00;;;;;;6255876;28;19909;-68
2023/04/02 05:28:01;;;;;;;;;;;19.40;54.00;;;;;;6264339;28;20646;-69
2023/04/02 05:31:04;;;;;;;;;;;19.40;54.00;;;;;;6271274;28;19951;-69
2023/04/02 05:34:05;;;;;;;;;;;19.40;53.90;;;;;;6246769;28;19910;-69
2023/04/02 05:37:11;;;;;;;;;;;19.40;54.10;;;;;;6246880;28;19909;-68
2023/04/02 05:40:13;;;;;;;;;;;19.40;54.00;;;;;;6229191;28;19913;-69
2023/04/02 05:43:17;;;;;;;;;;;19.40;54.00;;;;;;6228326;28;19916;-69
2023/04/02 05:46:20;;;;;;;;;;;19.40;54.00;;;;;;6246747;28;19909;-68
2023/04/02 05:49:24;;;;;;;;;;;19.40;54.00;;;;;;6228646;28;19909;-69
2023/04/02 05:52:27;;;;;;;;;;;19.30;53.90;;;;;;6255492;28;20328;-69
2023/04/02 05:55:31;;;;;;;;;;;19.40;54.00;;;;;;6271285;28;19905;-69
2023/04/02 05:58:35;;;;;;;;;;;19.40;54.00;;;;;;6253080;28;19913;-69
2023/04/02 06:01:46;;;;;;;;;;;19.40;54.00;;;;;;6253111;28;20055;-69
2023/04/02 06:04:58;;;;;;;;;;;19.30;53.90;;;;;;6270765;28;19912;-70
2023/04/02 06:08:05;;;;;;;;;;;19.40;54.00;;;;;;6241074;28;19909;-69
2023/04/02 06:11:11;;;;;;;;;;;19.30;53.90;;;;;;6228572;28;20375;-69
2023/04/02 06:14:13;;;;;;;;;;;19.30;53.90;;;;;;6249295;28;20582;-69
2023/04/02 06:17:17;;;;;;;;;;;19.40;54.00;;;;;;6270798;28;19999;-69
2023/04/02 06:20:19;;;;;;;;;;;19.40;53.90;;;;;;6252711;28;19959;-69
2023/04/02 06:23:40;;;;;;;;;;;19.40;53.90;;;;;;6252767;28;19996;-69
2023/04/02 06:26:43;;;;;;;;;;;19.40;54.00;;;;;;6252708;28;19913;-69
2023/04/02 06:29:44;;;;;;;;;;;19.40;53.90;;;;;;6270611;28;19916;-69
2023/04/02 06:32:45;;;;;;;;;;;19.40;53.90;;;;;;6264275;28;19913;-69
2023/04/02 06:35:49;;;;;;;;;;;19.40;53.90;;;;;;6245640;28;20264;-68
2023/04/02 06:38:53;;;;;;;;;;;19.30;53.90;;;;;;6227881;28;19909;-70
2023/04/02 06:41:55;;;;;;;;;;;19.30;53.80;;;;;;6245487;28;20282;-69
2023/04/02 06:44:56;;;;;;;;;;;19.30;53.80;;;;;;6250495;28;19912;-69
2023/04/02 06:47:58;;;;;;;;;;;19.40;53.90;;;;;;6269970;28;19915;-69
2023/04/02 06:51:10;;;;;;;;;;;19.30;53.80;;;;;;6270304;28;20341;-68
2023/04/02 06:54:15;;;;;;;;;;;19.30;53.80;;;;;;6269889;28;20070;-69
2023/04/02 06:57:15;;;;;;;;;;;19.30;53.80;;;;;;6269928;28;19967;-69
2023/04/02 07:00:35;;;;;;;;;;;19.30;53.70;;;;;;6269658;28;20499;-69
2023/04/02 07:03:36;;;;;;;;;;;19.30;53.70;;;;;;6260726;28;19962;-69
2023/04/02 07:06:36;;;;;;;;;;;19.30;53.70;;;;;;6245103;28;19913;-69
2023/04/02 07:09:37;;;;;;;;;;;19.40;53.60;;;;;;6261715;28;19991;-69
2023/04/02 07:12:37;;;;;;;;;;;19.30;53.70;;;;;;6269491;28;19984;-66
2023/04/02 07:15:38;;;;;;;;;;;19.30;53.70;;;;;;6244649;28;19936;-67
2023/04/02 07:18:38;;;;;;;;;;;19.30;53.70;;;;;;6234262;28;20398;-67
2023/04/02 07:21:39;;;;;;;;;;;19.30;53.70;;;;;;6250765;28;19966;-66
2023/04/02 07:24:39;;;;;;;;;;;19.30;53.80;;;;;;6268615;28;19912;-67
2023/04/02 07:27:40;;;;;;;;;;;19.30;53.80;;;;;;6269066;28;19917;-69
2023/04/02 07:30:42;;;;;;;;;;;19.30;53.70;;;;;;6246539;28;19952;-69
2023/04/02 07:33:43;;;;;;;;;;;19.30;53.70;;;;;;6249886;28;20481;-69
2023/04/02 07:36:44;;;;;;;;;;;19.30;53.70;;;;;;6246012;28;20341;-69
2023/04/02 07:39:44;;;;;;;;;;;19.30;53.60;;;;;;6257924;28;19909;-69
2023/04/02 07:42:45;;;;;;;;;;;19.30;53.60;;;;;;6268930;28;19913;-69
2023/04/02 07:45:46;;;;;;;;;;;19.30;53.70;;;;;;6247278;28;19913;-69
2023/04/02 07:48:46;;;;;;;;;;;19.30;53.70;;;;;;6248463;28;19909;-69
2023/04/02 07:51:47;;;;;;;;;;;19.30;53.60;;;;;;6250853;28;19925;-68
2023/04/02 07:54:47;;;;;;;;;;;19.30;53.60;;;;;;6250867;28;19920;-69
2023/04/02 07:57:50;;;;;;;;;;;19.30;53.60;;;;;;6251185;28;20382;-69
2023/04/02 08:00:50;;;;;;;;;;;19.30;53.70;;;;;;6248671;28;19920;-70
2023/04/02 08:03:55;;;;;;;;;;;19.30;53.60;;;;;;6252090;28;19978;-69
2023/04/02 08:06:56;;;;;;;;;;;19.30;53.60;;;;;;6250592;28;20465;-68
2023/04/02 08:09:56;;;;;;;;;;;19.30;53.60;;;;;;6239493;28;19909;-69
2023/04/02 08:12:57;;;;;;;;;;;19.30;53.60;;;;;;6226206;28;19959;-70
2023/04/02 08:15:58;;;;;;;;;;;19.30;53.50;;;;;;6262479;28;19936;-69
2023/04/02 08:19:00;;;;;;;;;;;19.30;53.50;;;;;;6248855;28;19924;-69
2023/04/02 08:22:01;;;;;;;;;;;19.30;53.30;;;;;;6243654;28;19917;-69
2023/04/02 08:25:01;;;;;;;;;;;19.30;53.40;;;;;;6252883;28;19971;-69
2023/04/02 08:28:02;;;;;;;;;;;19.30;53.30;;;;;;6268207;28;19916;-69
2023/04/02 08:31:03;;;;;;;;;;;19.30;53.40;;;;;;6251172;28;19920;-69
2023/04/02 08:34:04;;;;;;;;;;;19.30;53.10;;;;;;6248442;28;20472;-70
2023/04/02 08:37:04;;;;;;;;;;;19.40;53.50;;;;;;6249001;28;19913;-68
2023/04/02 08:40:08;;;;;;;;;;;19.30;53.40;;;;;;6238329;28;19920;-68
2023/04/02 08:43:15;;;;;;;;;;;19.40;53.40;;;;;;6248333;28;19916;-69
2023/04/02 08:46:25;;;;;;;;;;;19.40;53.20;;;;;;6247460;28;19909;-68
2023/04/02 08:49:35;;;;;;;;;;;19.40;53.40;;;;;;6273217;28;20315;-69
2023/04/02 08:52:37;;;;;;;;;;;19.40;53.50;;;;;;6273033;28;19925;-69
2023/04/02 08:55:41;;;;;;;;;;;19.40;53.40;;;;;;6244241;28;19936;-68
2023/04/02 08:58:49;;;;;;;;;;;19.40;53.40;;;;;;6248223;28;19932;-69
2023/04/02 09:02:10;;;;;;;;;;;19.40;53.40;;;;;;6230234;28;19913;-70
2023/04/02 09:05:16;;;;;;;;;;;19.40;53.40;;;;;;6248634;28;19912;-68
2023/04/02 09:08:18;;;;;;;;;;;19.40;53.40;;;;;;6226034;28;20419;-69
2023/04/02 09:11:20;;;;;;;;;;;19.40;53.30;;;;;;6271014;28;20544;-69
2023/04/02 09:14:44;;;;;;;;;;;19.40;53.40;;;;;;6270957;28;19909;-69
2023/04/02 09:17:45;;;;;;;;;;;19.40;53.40;;;;;;6233775;28;19909;-70
2023/04/02 09:20:47;;;;;;;;;;;19.40;53.40;;;;;;6237937;28;20001;-70
2023/04/02 09:23:48;;;;;;;;;;;19.40;53.40;;;;;;6248870;28;19909;-70
2023/04/02 09:26:49;;;;;;;;;;;19.40;53.50;;;;;;6255040;28;19986;-70
2023/04/02 09:29:55;;;;;;;;;;;19.40;53.40;;;;;;6271537;28;19909;-69
2023/04/02 09:33:06;;;;;;;;;;;19.40;53.50;;;;;;6252912;28;19915;-68
2023/04/02 09:36:16;;;;;;;;;;;19.40;53.40;;;;;;6247991;28;19971;-70
2023/04/02 09:39:21;;;;;;;;;;;19.40;53.40;;;;;;6271088;28;19909;-69
2023/04/02 09:42:32;;;;;;;;;;;19.40;53.40;;;;;;6269820;28;19913;-70
2023/04/02 09:45:33;;;;;;;;;;;19.40;53.30;;;;;;6270588;28;19909;-68
2023/04/02 09:48:34;;;;;;;;;;;19.40;53.30;;;;;;6270656;28;19915;-70
2023/04/02 09:51:35;;;;;;;;;;;19.40;53.50;;;;;;6252304;28;20015;-69
2023/04/02 09:55:04;;;;;;;;;;;19.40;53.50;;;;;;6235750;28;19936;-69
2023/04/02 09:58:13;;;;;;;;;;;19.40;53.50;;;;;;6265277;28;19931;-68
2023/04/02 10:01:29;;;;;;;;;;;19.40;53.60;;;;;;6251608;28;20302;-68
2023/04/02 10:04:46;;;;;;;;;;;19.40;53.70;;;;;;6220458;28;19925;-69
2023/04/02 10:07:51;;;;;;;;;;;19.40;53.70;;;;;;6245203;28;19913;-70
2023/04/02 10:10:54;;;;;;;;;;;19.40;53.60;;;;;;6268397;28;19963;-70
2023/04/02 10:13:57;;;;;;;;;;;19.50;53.80;;;;;;6269029;28;19915;-69
2023/04/02 10:17:04;;;;;;;;;;;19.40;53.80;;;;;;6249327;28;19917;-70
2023/04/02 10:20:14;;;;;;;;;;;19.40;53.80;;;;;;6227784;28;19924;-71
2023/04/02 10:23:15;;;;;;;;;;;19.50;53.90;;;;;;6226429;28;19913;-71
2023/04/02 10:26:35;;;;;;;;;;;19.50;53.90;;;;;;6245421;28;19925;-71
2023/04/02 10:29:42;;;;;;;;;;;19.40;53.90;;;;;;6227113;28;19996;-71
2023/04/02 10:32:48;;;;;;;;;;;19.50;54.00;;;;;;6226196;28;19984;-71
2023/04/02 10:35:56;;;;;;;;;;;19.40;53.90;;;;;;6245237;28;19917;-70
2023/04/02 10:38:57;;;;;;;;;;;19.40;53.90;;;;;;6260873;28;19991;-71
2023/04/02 10:42:21;;;;;;;;;;;19.40;54.10;;;;;;6268913;28;19942;-71
2023/04/02 10:45:39;;;;;;;;;;;19.50;54.20;;;;;;6219783;28;19910;-71
2023/04/02 10:48:49;;;;;;;;;;;19.40;54.10;;;;;;6221749;28;19995;-71
2023/04/02 10:52:02;;;;;;;;;;;19.50;54.20;;;;;;6226392;28;19956;-71
2023/04/02 10:55:17;;;;;;;;;;;19.40;54.10;;;;;;6244220;28;19921;-69
2023/04/02 10:58:23;;;;;;;;;;;19.50;54.20;;;;;;6240893;28;19913;-70
2023/04/02 11:01:27;;;;;;;;;;;19.40;54.10;;;;;;6202405;28;19914;-70
2023/04/02 11:04:41;;;;;;;;;;;19.40;54.10;;;;;;6242439;28;19909;-69
2023/04/02 11:07:48;;;;;;;;;;;19.50;54.20;;;;;;6266580;28;19919;-69
2023/04/02 11:11:08;;;;;;;;;;;19.40;54.10;;;;;;6243673;28;19916;-69
2023/04/02 11:14:22;;;;;;;;;;;19.50;54.10;;;;;;6255858;28;19912;-69
2023/04/02 11:17:23;;;;;;;;;;;19.50;54.10;;;;;;6268638;28;19913;-69
2023/04/02 11:20:42;;;;;;;;;;;19.50;54.10;;;;;;6268072;28;20390;-69
2023/04/02 11:23:59;;;;;;;;;;;19.40;53.90;;;;;;6245874;28;19917;-69
2023/04/02 11:27:10;;;;;;;;;;;19.50;54.10;;;;;;6225621;28;19909;-69
2023/04/02 11:30:17;;;;;;;;;;;19.50;54.10;;;;;;6242501;28;19920;-69
2023/04/02 11:33:38;;;;;;;;;;;19.50;54.00;;;;;;6242483;28;19909;-69
2023/04/02 11:36:54;;;;;;;;;;;19.40;53.90;;;;;;6240652;28;19959;-69
2023/04/02 11:39:58;;;;;;;;;;;19.40;53.90;;;;;;6234663;28;19909;-69
2023/04/02 11:43:19;;;;;;;;;;;19.40;53.90;;;;;;6242218;28;19909;-69
2023/04/02 11:46:29;;;;;;;;;;;19.40;53.90;;;;;;6218474;28;19918;-69
2023/04/02 11:50:01;;;;;;;;;;;19.40;54.00;;;;;;6241847;28;19935;-69
2023/04/02 11:53:18;;;;;;;;;;;19.40;54.00;;;;;;6246688;28;20007;-69
2023/04/02 11:56:30;;;;;;;;;;;19.40;54.00;;;;;;6228075;28;21349;-69
2023/04/02 12:00:00;;;;;;;;;;;19.50;54.10;;;;;;6252117;28;19915;-69
2023/04/02 12:03:16;;;;;;;;;;;19.50;54.10;;;;;;6232010;28;19913;-68
2023/04/02 12:06:24;;;;;;;;;;;19.50;54.10;;;;;;6243760;28;19916;-68
2023/04/02 12:09:26;;;;;;;;;;;19.40;54.10;;;;;;6224936;28;20440;-68
2023/04/02 12:12:38;;;;;;;;;;;19.50;54.10;;;;;;6253935;28;20287;-68
2023/04/02 12:15:42;;;;;;;;;;;19.40;54.00;;;;;;6225096;28;19917;-68
2023/04/02 12:18:50;;;;;;;;;;;19.40;54.00;;;;;;6232509;28;19975;-68
2023/04/02 12:21:52;;;;;;;;;;;19.40;54.10;;;;;;6267482;28;19913;-68
2023/04/02 12:24:55;;;;;;;;;;;19.40;54.00;;;;;;6253970;28;20498;-68
2023/04/02 12:28:05;;;;;;;;;;;19.40;54.00;;;;;;6242390;28;20253;-68
2023/04/02 12:31:08;;;;;;;;;;;19.40;54.00;;;;;;6256238;28;19920;-68
2023/04/02 12:34:12;;;;;;;;;;;19.40;54.00;;;;;;6264604;28;19909;-67
2023/04/02 12:37:21;;;;;;;;;;;19.40;54.00;;;;;;6247057;28;19971;-68
2023/04/02 12:40:22;;;;;;;;;;;19.40;54.10;;;;;;6248805;28;19916;-68
2023/04/02 12:43:25;;;;;;;;;;;19.40;54.00;;;;;;6266862;28;20000;-67
2023/04/02 12:46:27;;;;;;;;;;;19.40;54.10;;;;;;6249069;28;19913;-68
2023/04/02 12:49:33;;;;;;;;;;;19.40;54.10;;;;;;6267414;28;20391;-68
2023/04/02 12:52:34;;;;;;;;;;;19.40;54.10;;;;;;6266437;28;19983;-67
2023/04/02 12:55:35;;;;;;;;;;;19.40;54.20;;;;;;6261274;28;19913;-68
2023/04/02 12:58:36;;;;;;;;;;;19.40;54.20;;;;;;6248259;28;19955;-68
2023/04/02 13:01:36;;;;;;;;;;;19.40;54.20;;;;;;6266513;28;19912;-68
2023/04/02 13:04:45;;;;;;;;;;;19.40;54.20;;;;;;6248744;28;19916;-67
2023/04/02 13:07:46;;;;;;;;;;;19.40;54.30;;;;;;6265926;28;19913;-67
2023/04/02 13:10:51;;;;;;;;;;;19.40;54.20;;;;;;6248217;28;19908;-68
2023/04/02 13:13:52;;;;;;;;;;;19.40;54.30;;;;;;6265642;28;20453;-68
2023/04/02 13:16:53;;;;;;;;;;;19.40;54.20;;;;;;6266339;28;19925;-67
2023/04/02 13:19:54;;;;;;;;;;;19.40;54.20;;;;;;6253646;28;19960;-69
2023/04/02 13:22:55;;;;;;;;;;;19.40;54.20;;;;;;6270134;28;20343;-69
2023/04/02 13:25:57;;;;;;;;;;;19.40;54.30;;;;;;6235527;28;19913;-68
2023/04/02 13:29:16;;;;;;;;;;;19.40;54.20;;;;;;6245766;28;19925;-68
2023/04/02 13:32:18;;;;;;;;;;;19.40;54.20;;;;;;6243228;28;19948;-69
2023/04/02 13:35:20;;;;;;;;;;;19.40;54.20;;;;;;6238103;28;19963;-69
2023/04/02 13:38:21;;;;;;;;;;;19.40;54.20;;;;;;6244159;28;19928;-68
2023/04/02 13:41:23;;;;;;;;;;;19.40;54.20;;;;;;6247562;28;19956;-69
2023/04/02 13:44:28;;;;;;;;;;;19.40;54.10;;;;;;6252332;28;19919;-69
2023/04/02 13:47:29;;;;;;;;;;;19.40;54.20;;;;;;6255923;28;19916;-69
2023/04/02 13:50:31;;;;;;;;;;;19.40;54.30;;;;;;6227945;28;19909;-69
2023/04/02 13:53:32;;;;;;;;;;;19.40;54.20;;;;;;6244659;28;19932;-69
2023/04/02 13:56:32;;;;;;;;;;;19.40;54.20;;;;;;6244928;28;20117;-69
2023/04/02 13:59:33;;;;;;;;;;;19.40;54.20;;;;;;6232042;28;20388;-68
2023/04/02 14:02:34;;;;;;;;;;;19.40;54.20;;;;;;6228354;28;19912;-69
2023/04/02 14:05:35;;;;;;;;;;;19.40;54.30;;;;;;6269714;28;19908;-69
2023/04/02 14:08:45;;;;;;;;;;;19.40;54.20;;;;;;6251212;28;19958;-69
2023/04/02 14:11:55;;;;;;;;;;;19.40;54.20;;;;;;6245156;28;19917;-69
2023/04/02 14:14:55;;;;;;;;;;;19.40;54.20;;;;;;6244175;28;19913;-69
2023/04/02 14:18:19;;;;;;;;;;;19.40;54.20;;;;;;6227244;28;19945;-69
2023/04/02 14:21:45;;;;;;;;;;;19.40;54.20;;;;;;6234113;28;19920;-69
2023/04/02 14:24:52;;;;;;;;;;;19.40;54.20;;;;;;6243890;28;19917;-69
2023/04/02 14:28:09;;;;;;;;;;;19.40;54.10;;;;;;6244762;28;19919;-69
2023/04/02 14:31:17;;;;;;;;;;;19.40;54.20;;;;;;6259254;28;19913;-69
2023/04/02 14:34:21;;;;;;;;;;;19.40;54.10;;;;;;6256888;28;19964;-69
2023/04/02 14:37:50;;;;;;;;;;;19.40;54.30;;;;;;6238773;28;19909;-69
2023/04/02 14:40:51;;;;;;;;;;;19.40;54.10;;;;;;6210264;28;19913;-69
2023/04/02 14:44:00;;;;;;;;;;;19.40;54.20;;;;;;6260312;28;19908;-68
2023/04/02 14:47:13;;;;;;;;;;;19.40;54.30;;;;;;6267574;28;19912;-69
2023/04/02 14:50:19;;;;;;;;;;;19.40;54.10;;;;;;6220212;28;19913;-68
2023/04/02 14:53:23;;;;;;;;;;;19.40;54.20;;;;;;6229458;28;19925;-69
2023/04/02 14:56:24;;;;;;;;;;;19.40;54.20;;;;;;6226399;28;19912;-68
2023/04/02 14:59:25;;;;;;;;;;;19.40;54.20;;;;;;6244106;28;19992;-68
2023/04/02 15:02:36;;;;;;;;;;;19.40;54.20;;;;;;6245302;28;19914;-69
2023/04/02 15:05:45;;;;;;;;;;;19.40;54.10;;;;;;6250004;28;19909;-69
2023/04/02 15:08:51;;;;;;;;;;;19.40;54.20;;;;;;6249948;28;19940;-68
2023/04/02 15:12:20;;;;;;;;;;;19.40;54.10;;;;;;6244051;28;19909;-68
2023/04/02 15:15:27;;;;;;;;;;;19.40;54.20;;;;;;6221797;28;19948;-68
2023/04/02 15:18:27;;;;;;;;;;;19.40;54.20;;;;;;6225932;28;19913;-69
2023/04/02 15:21:44;;;;;;;;;;;19.40;54.10;;;;;;6243743;28;20498;-69
2023/04/02 15:25:03;;;;;;;;;;;19.40;54.20;;;;;;6235141;28;20478;-70
2023/04/02 15:28:03;;;;;;;;;;;19.40;54.10;;;;;;6243271;28;19913;-69
2023/04/02 15:31:06;;;;;;;;;;;19.40;54.10;;;;;;6226784;28;19944;-68
2023/04/02 15:34:25;;;;;;;;;;;19.40;54.20;;;;;;6242049;28;20556;-69
2023/04/02 15:37:31;;;;;;;;;;;19.40;54.10;;;;;;6243330;28;19909;-68
2023/04/02 15:40:32;;;;;;;;;;;19.40;54.10;;;;;;6262690;28;19948;-69
2023/04/02 15:43:40;;;;;;;;;;;19.40;54.10;;;;;;6264077;28;19920;-69
2023/04/02 15:46:50;;;;;;;;;;;19.40;54.20;;;;;;6242927;28;20812;-69
2023/04/02 15:49:50;;;;;;;;;;;19.40;54.10;;;;;;6256123;28;19920;-69
2023/04/02 15:52:54;;;;;;;;;;;19.40;54.00;;;;;;6267279;28;20011;-69
2023/04/02 15:55:57;;;;;;;;;;;19.40;54.00;;;;;;6259525;28;19909;-68
2023/04/02 15:59:17;;;;;;;;;;;19.40;54.00;;;;;;6225040;28;19909;-69
2023/04/02 16:02:20;;;;;;;;;;;19.40;54.00;;;;;;6232211;28;19917;-69
2023/04/02 16:05:40;;;;;;;;;;;19.40;54.00;;;;;;6266502;28;19951;-68
2023/04/02 16:08:43;;;;;;;;;;;19.40;54.00;;;;;;6244535;28;19909;-69
2023/04/02 16:11:44;;;;;;;;;;;19.40;53.90;;;;;;6264224;28;19917;-69
2023/04/02 16:14:46;;;;;;;;;;;19.40;53.90;;;;;;6256833;28;19927;-69
2023/04/02 16:17:50;;;;;;;;;;;19.40;54.00;;;;;;6251209;28;20016;-69
2023/04/02 16:20:51;;;;;;;;;;;19.40;54.00;;;;;;6231996;28;19913;-68
2023/04/02 16:23:52;;;;;;;;;;;19.40;53.90;;;;;;6240738;28;19935;-69
2023/04/02 16:26:53;;;;;;;;;;;19.40;53.90;;;;;;6241046;28;20376;-69
2023/04/02 16:29:54;;;;;;;;;;;19.40;54.00;;;;;;6262318;28;20004;-68
2023/04/02 16:33:02;;;;;;;;;;;19.40;54.00;;;;;;6249568;28;19913;-70
2023/04/02 16:36:21;;;;;;;;;;;19.40;54.00;;;;;;6227400;28;19913;-68
2023/04/02 16:39:31;;;;;;;;;;;19.40;54.00;;;;;;6224937;28;20275;-68
2023/04/02 16:42:42;;;;;;;;;;;19.40;54.10;;;;;;6244555;28;19947;-69
2023/04/02 16:46:02;;;;;;;;;;;19.40;54.10;;;;;;6248979;28;19980;-68
2023/04/02 16:49:09;;;;;;;;;;;19.40;54.10;;;;;;6249088;28;19916;-68
2023/04/02 16:52:28;;;;;;;;;;;19.40;54.10;;;;;;6267462;28;19920;-70
2023/04/02 16:55:31;;;;;;;;;;;19.40;54.10;;;;;;6227292;28;20032;-67
2023/04/02 16:58:31;;;;;;;;;;;19.40;54.00;;;;;;6246691;28;20291;-67
2023/04/02 17:01:51;;;;;;;;;;;19.40;54.10;;;;;;6223840;28;19917;-68
2023/04/02 17:04:57;;;;;;;;;;;19.40;54.10;;;;;;6246315;28;19964;-67
2023/04/02 17:08:01;;;;;;;;;;;19.40;54.00;;;;;;6248513;28;19916;-67
2023/04/02 17:11:06;;;;;;;;;;;19.40;54.00;;;;;;6240847;28;19913;-68
2023/04/02 17:14:27;;;;;;;;;;;19.40;54.00;;;;;;6245987;28;19909;-67
2023/04/02 17:17:28;;;;;;;;;;;19.40;54.10;;;;;;6180251;28;19913;-67
2023/04/02 17:20:28;;;;;;;;;;;19.40;54.00;;;;;;6208044;28;19941;-67
2023/04/02 17:23:30;;;;;;;;;;;19.40;54.00;;;;;;6252598;28;19909;-68
2023/04/02 17:26:33;;;;;;;;;;;19.40;53.90;;;;;;6252154;28;20278;-67
2023/04/02 17:29:39;;;;;;;;;;;19.40;54.00;;;;;;6252987;28;19967;-68
2023/04/02 17:32:40;;;;;;;;;;;19.40;54.00;;;;;;6270006;28;19917;-67
2023/04/02 17:35:54;;;;;;;;;;;19.40;54.00;;;;;;6247399;28;19913;-68
2023/04/02 17:39:07;;;;;;;;;;;19.40;54.00;;;;;;6234396;28;19915;-68
2023/04/02 17:42:10;;;;;;;;;;;19.40;54.00;;;;;;6257251;28;19913;-68
2023/04/02 17:45:14;;;;;;;;;;;19.40;54.00;;;;;;6227430;28;19912;-67
2023/04/02 17:48:21;;;;;;;;;;;19.40;54.00;;;;;;6227651;28;19909;-68
2023/04/02 17:51:39;;;;;;;;;;;19.40;53.90;;;;;;6230586;28;19909;-68
2023/04/02 17:54:50;;;;;;;;;;;19.40;54.00;;;;;;6251712;28;20425;-68
2023/04/02 17:58:11;;;;;;;;;;;19.40;54.00;;;;;;6237583;28;19963;-67
2023/04/02 18:01:24;;;;;;;;;;;19.40;54.00;;;;;;6219670;28;19920;-68
2023/04/02 18:04:43;;;;;;;;;;;19.40;54.00;;;;;;6231469;28;19913;-67
2023/04/02 18:07:47;;;;;;;;;;;19.40;54.00;;;;;;6218819;28;19913;-67